Time;durP1;ratioP1;P1;durP2;ratioP2;P2;SDS_P1;SDS_P2;PMS_P1;PMS_P2;Temp;Humidity;BMP_temperature;BMP_pressure;BME280_temperature;BME280_humidity;BME280_pressure;Samples;Min_cycle;Max_cycle;Signal;HPM_P1;HPM_P2
2022/10/08 00:00:22;;;;;;;;;;;;;;;;;;5050705;28;20350;-45
2022/10/08 00:02:48;;;;;;;;;;;;;;;;;;5052892;28;19908;-46
2022/10/08 00:05:14;;;;;;;;;;;;;;;;;;5051137;28;20520;-45
2022/10/08 00:07:43;;;;;;;;;;;;;;;;;;5051824;28;19912;-46
2022/10/08 00:10:09;;;;;;;;;;;;;;;;;;5051103;28;20016;-45
2022/10/08 00:12:34;;;;;;;;;;;;;;;;;;5052270;28;19954;-45
2022/10/08 00:15:00;;;;;;;;;;;;;;;;;;5050967;28;19909;-47
2022/10/08 00:17:27;;;;;;;;;;;;;;;;;;5051405;28;19915;-45
2022/10/08 00:19:53;;;;;;;;;;;;;;;;;;5051493;28;19909;-46
2022/10/08 00:22:19;;;;;;;;;;;;;;;;;;5050837;28;19915;-45
2022/10/08 00:24:45;;;;;;;;;;;;;;;;;;5052288;28;19909;-46
2022/10/08 00:27:11;;;;;;;;;;;;;;;;;;5051016;28;19904;-45
2022/10/08 00:29:37;;;;;;;;;;;;;;;;;;5051573;28;19913;-45
2022/10/08 00:32:03;;;;;;;;;;;;;;;;;;5050872;28;19920;-45
2022/10/08 00:34:29;;;;;;;;;;;;;;;;;;5051352;28;19915;-45
2022/10/08 00:36:55;;;;;;;;;;;;;;;;;;5050629;28;19963;-55
2022/10/08 00:39:21;;;;;;;;;;;;;;;;;;5051581;28;19913;-45
2022/10/08 00:41:47;;;;;;;;;;;;;;;;;;5051391;28;20328;-46
2022/10/08 00:44:13;;;;;;;;;;;;;;;;;;5051018;28;19964;-45
2022/10/08 00:46:40;;;;;;;;;;;;;;;;;;5051406;28;19936;-45
2022/10/08 00:49:06;;;;;;;;;;;;;;;;;;5050526;28;20317;-46
2022/10/08 00:51:32;;;;;;;;;;;;;;;;;;5049964;28;19913;-45
2022/10/08 00:53:58;;;;;;;;;;;;;;;;;;5051178;28;19985;-55
2022/10/08 00:56:23;;;;;;;;;;;;;;;;;;5047707;28;19943;-45
2022/10/08 00:58:49;;;;;;;;;;;;;;;;;;5051294;28;19913;-47
2022/10/08 01:01:15;;;;;;;;;;;;;;;;;;5047872;28;20082;-45
2022/10/08 01:03:41;;;;;;;;;;;;;;;;;;5048212;28;19915;-45
2022/10/08 01:06:07;;;;;;;;;;;;;;;;;;5044089;28;20349;-49
2022/10/08 01:08:33;;;;;;;;;;;;;;;;;;5050594;28;19912;-46
2022/10/08 01:10:59;;;;;;;;;;;;;;;;;;5050189;28;19912;-47
2022/10/08 01:13:24;;;;;;;;;;;;;;;;;;5051943;28;19908;-46
2022/10/08 01:15:50;;;;;;;;;;;;;;;;;;5051511;28;19905;-46
2022/10/08 01:18:16;;;;;;;;;;;;;;;;;;5050586;28;19991;-46
2022/10/08 01:20:42;;;;;;;;;;;;;;;;;;5043786;28;19909;-46
2022/10/08 01:23:08;;;;;;;;;;;;;;;;;;5050755;28;20420;-46
2022/10/08 01:25:34;;;;;;;;;;;;;;;;;;5049664;28;19908;-45
2022/10/08 01:28:00;;;;;;;;;;;;;;;;;;5044515;28;20269;-45
2022/10/08 01:30:26;;;;;;;;;;;;;;;;;;5051458;28;19909;-45
2022/10/08 01:32:52;;;;;;;;;;;;;;;;;;5051181;28;20274;-45
2022/10/08 01:35:19;;;;;;;;;;;;;;;;;;5050251;28;20752;-45
2022/10/08 01:37:45;;;;;;;;;;;;;;;;;;5051610;28;19908;-45
2022/10/08 01:40:11;;;;;;;;;;;;;;;;;;5048701;28;20011;-45
2022/10/08 01:42:38;;;;;;;;;;;;;;;;;;5051048;28;19908;-45
2022/10/08 01:45:04;;;;;;;;;;;;;;;;;;5049391;28;19923;-45
2022/10/08 01:47:30;;;;;;;;;;;;;;;;;;5047914;28;20042;-45
2022/10/08 01:49:56;;;;;;;;;;;;;;;;;;5050438;28;19912;-55
2022/10/08 01:52:22;;;;;;;;;;;;;;;;;;5047160;28;20007;-45
2022/10/08 01:54:49;;;;;;;;;;;;;;;;;;5050975;28;19988;-45
2022/10/08 01:57:15;;;;;;;;;;;;;;;;;;5046931;28;19965;-45
2022/10/08 01:59:41;;;;;;;;;;;;;;;;;;5046247;28;19921;-50
2022/10/08 02:02:07;;;;;;;;;;;;;;;;;;5046808;28;19909;-45
2022/10/08 02:04:33;;;;;;;;;;;;;;;;;;5048809;28;19909;-45
2022/10/08 02:06:59;;;;;;;;;;;;;;;;;;5048683;28;19912;-45
2022/10/08 02:09:25;;;;;;;;;;;;;;;;;;5051061;28;20311;-45
2022/10/08 02:11:51;;;;;;;;;;;;;;;;;;5050418;28;19912;-46
2022/10/08 02:14:17;;;;;;;;;;;;;;;;;;5053178;28;20466;-45
2022/10/08 02:16:43;;;;;;;;;;;;;;;;;;5053891;28;19962;-46
2022/10/08 02:19:09;;;;;;;;;;;;;;;;;;5053929;28;20415;-46
2022/10/08 02:21:34;;;;;;;;;;;;;;;;;;5053291;28;19916;-45
2022/10/08 02:24:00;;;;;;;;;;;;;;;;;;5052867;28;19908;-45
2022/10/08 02:26:26;;;;;;;;;;;;;;;;;;5052256;28;19991;-45
2022/10/08 02:28:52;;;;;;;;;;;;;;;;;;5052681;28;19920;-45
2022/10/08 02:31:18;;;;;;;;;;;;;;;;;;5051007;28;20270;-45
2022/10/08 02:33:44;;;;;;;;;;;;;;;;;;5053692;28;19956;-45
2022/10/08 02:36:10;;;;;;;;;;;;;;;;;;5053191;28;19955;-48
2022/10/08 02:38:36;;;;;;;;;;;;;;;;;;5053896;28;19908;-45
2022/10/08 02:41:01;;;;;;;;;;;;;;;;;;5052107;28;20336;-52
2022/10/08 02:43:29;;;;;;;;;;;;;;;;;;5053262;28;19924;-46
2022/10/08 02:45:55;;;;;;;;;;;;;;;;;;5053619;28;19916;-55
2022/10/08 02:48:21;;;;;;;;;;;;;;;;;;5052732;28;19905;-45
2022/10/08 02:50:47;;;;;;;;;;;;;;;;;;5052273;28;19913;-46
2022/10/08 02:53:13;;;;;;;;;;;;;;;;;;5052907;28;19951;-46
2022/10/08 02:55:39;;;;;;;;;;;;;;;;;;5053640;28;19958;-45
2022/10/08 02:58:05;;;;;;;;;;;;;;;;;;5053583;28;19943;-45
2022/10/08 03:00:33;;;;;;;;;;;;;;;;;;5052601;28;19915;-45
2022/10/08 03:03:00;;;;;;;;;;;;;;;;;;5052544;28;19909;-45
2022/10/08 03:05:25;;;;;;;;;;;;;;;;;;5052423;28;19905;-45
2022/10/08 03:07:52;;;;;;;;;;;;;;;;;;5053884;28;19955;-45
2022/10/08 03:10:18;;;;;;;;;;;;;;;;;;5051992;28;19916;-50
2022/10/08 03:12:44;;;;;;;;;;;;;;;;;;5053461;28;19935;-46
2022/10/08 03:15:10;;;;;;;;;;;;;;;;;;5052174;28;20345;-45
2022/10/08 03:17:36;;;;;;;;;;;;;;;;;;5053882;28;19912;-46
2022/10/08 03:20:02;;;;;;;;;;;;;;;;;;5052494;28;19912;-47
2022/10/08 03:22:28;;;;;;;;;;;;;;;;;;5050830;28;19915;-46
2022/10/08 03:24:54;;;;;;;;;;;;;;;;;;5051999;28;19912;-55
2022/10/08 03:27:19;;;;;;;;;;;;;;;;;;5046047;28;20354;-45
2022/10/08 03:29:45;;;;;;;;;;;;;;;;;;5052881;28;19980;-45
2022/10/08 03:32:11;;;;;;;;;;;;;;;;;;5050498;28;19909;-48
2022/10/08 03:34:37;;;;;;;;;;;;;;;;;;5052880;28;20354;-45
2022/10/08 03:37:03;;;;;;;;;;;;;;;;;;5049863;28;19909;-45
2022/10/08 03:39:29;;;;;;;;;;;;;;;;;;5051839;28;20012;-45
2022/10/08 03:41:55;;;;;;;;;;;;;;;;;;5051995;28;19908;-55
2022/10/08 03:44:20;;;;;;;;;;;;;;;;;;5051796;28;19917;-45
2022/10/08 03:46:46;;;;;;;;;;;;;;;;;;5052316;28;20419;-45
2022/10/08 03:49:12;;;;;;;;;;;;;;;;;;5051777;28;19966;-45
2022/10/08 03:51:38;;;;;;;;;;;;;;;;;;5052186;28;20301;-45
2022/10/08 03:54:04;;;;;;;;;;;;;;;;;;5049291;28;19916;-46
2022/10/08 03:56:30;;;;;;;;;;;;;;;;;;5050010;28;20349;-45
2022/10/08 03:58:56;;;;;;;;;;;;;;;;;;5045898;28;19947;-55
2022/10/08 04:01:22;;;;;;;;;;;;;;;;;;5051019;28;19917;-46
2022/10/08 04:03:47;;;;;;;;;;;;;;;;;;5051893;28;19964;-45
2022/10/08 04:06:13;;;;;;;;;;;;;;;;;;5046329;28;19939;-45
2022/10/08 04:08:39;;;;;;;;;;;;;;;;;;5050594;28;19913;-45
2022/10/08 04:11:05;;;;;;;;;;;;;;;;;;5047383;28;19913;-45
2022/10/08 04:13:31;;;;;;;;;;;;;;;;;;5049446;28;19912;-47
2022/10/08 04:15:57;;;;;;;;;;;;;;;;;;5047948;28;20010;-55
2022/10/08 04:18:23;;;;;;;;;;;;;;;;;;5052334;28;19987;-45
2022/10/08 04:20:49;;;;;;;;;;;;;;;;;;5048829;28;19908;-45
2022/10/08 04:23:15;;;;;;;;;;;;;;;;;;5046071;28;20559;-46
2022/10/08 04:25:40;;;;;;;;;;;;;;;;;;5048341;28;20255;-46
2022/10/08 04:28:06;;;;;;;;;;;;;;;;;;5049174;28;19912;-45
2022/10/08 04:30:32;;;;;;;;;;;;;;;;;;5048590;28;19913;-53
2022/10/08 04:32:58;;;;;;;;;;;;;;;;;;5050972;28;19982;-49
2022/10/08 04:35:24;;;;;;;;;;;;;;;;;;5051548;28;19909;-46
2022/10/08 04:37:50;;;;;;;;;;;;;;;;;;5052302;28;19905;-45
2022/10/08 04:40:16;;;;;;;;;;;;;;;;;;5050051;28;19948;-45
2022/10/08 04:42:42;;;;;;;;;;;;;;;;;;5051004;28;19996;-46
2022/10/08 04:45:07;;;;;;;;;;;;;;;;;;5050357;28;20370;-45
2022/10/08 04:47:33;;;;;;;;;;;;;;;;;;5051949;28;19909;-45
2022/10/08 04:49:59;;;;;;;;;;;;;;;;;;5049719;28;19931;-55
2022/10/08 04:52:25;;;;;;;;;;;;;;;;;;5047459;28;19913;-46
2022/10/08 04:54:51;;;;;;;;;;;;;;;;;;5051293;28;19909;-46
2022/10/08 04:57:17;;;;;;;;;;;;;;;;;;5049239;28;19997;-49
2022/10/08 04:59:43;;;;;;;;;;;;;;;;;;5050077;28;19954;-54
2022/10/08 05:02:08;;;;;;;;;;;;;;;;;;5050133;28;20269;-46
2022/10/08 05:04:34;;;;;;;;;;;;;;;;;;5051951;28;19905;-45
2022/10/08 05:07:00;;;;;;;;;;;;;;;;;;5050468;28;20354;-46
2022/10/08 05:09:26;;;;;;;;;;;;;;;;;;5050536;28;19915;-46
2022/10/08 05:11:52;;;;;;;;;;;;;;;;;;5037284;28;19913;-57
2022/10/08 05:14:18;;;;;;;;;;;;;;;;;;5046732;28;20584;-39
2022/10/08 05:16:44;;;;;;;;;;;;;;;;;;5028225;28;19908;-45
2022/10/08 05:19:10;;;;;;;;;;;;;;;;;;5046433;28;19974;-52
2022/10/08 05:21:35;;;;;;;;;;;;;;;;;;5049326;28;19913;-41
2022/10/08 05:24:01;;;;;;;;;;;;;;;;;;5046438;28;20012;-39
2022/10/08 05:26:27;;;;;;;;;;;;;;;;;;5049231;28;19983;-47
2022/10/08 05:28:53;;;;;;;;;;;;;;;;;;5047087;28;19943;-47
2022/10/08 05:31:19;;;;;;;;;;;;;;;;;;5047154;28;19924;-39
2022/10/08 05:33:45;;;;;;;;;;;;;;;;;;5049430;28;19995;-47
2022/10/08 05:36:11;;;;;;;;;;;;;;;;;;5047777;28;20313;-50
2022/10/08 05:38:37;;;;;;;;;;;;;;;;;;5050017;28;19908;-50
2022/10/08 05:41:03;;;;;;;;;;;;;;;;;;5047377;28;19987;-39
2022/10/08 05:43:28;;;;;;;;;;;;;;;;;;5044037;28;20022;-47
2022/10/08 05:45:54;;;;;;;;;;;;;;;;;;5046346;28;19915;-45
2022/10/08 05:48:20;;;;;;;;;;;;;;;;;;5049396;28;20463;-41
2022/10/08 05:50:46;;;;;;;;;;;;;;;;;;5053364;28;20405;-48
2022/10/08 05:53:12;;;;;;;;;;;;;;;;;;5049666;28;19943;-49
2022/10/08 05:55:38;;;;;;;;;;;;;;;;;;5052686;28;19908;-38
2022/10/08 05:58:04;;;;;;;;;;;;;;;;;;5050974;28;19912;-45
2022/10/08 06:00:30;;;;;;;;;;;;;;;;;;5047208;28;19956;-51
2022/10/08 06:02:56;;;;;;;;;;;;;;;;;;5052004;28;19909;-56
2022/10/08 06:05:21;;;;;;;;;;;;;;;;;;5050191;28;19909;-46
2022/10/08 06:07:47;;;;;;;;;;;;;;;;;;5051752;28;20417;-39
2022/10/08 06:10:13;;;;;;;;;;;;;;;;;;5051510;28;19920;-40
2022/10/08 06:12:39;;;;;;;;;;;;;;;;;;5048578;28;19915;-37
2022/10/08 06:15:05;;;;;;;;;;;;;;;;;;5052602;28;19923;-51
2022/10/08 06:17:31;;;;;;;;;;;;;;;;;;5048277;28;19908;-51
2022/10/08 06:19:57;;;;;;;;;;;;;;;;;;5048724;28;19913;-55
2022/10/08 06:22:22;;;;;;;;;;;;;;;;;;5052074;28;19913;-40
2022/10/08 06:24:48;;;;;;;;;;;;;;;;;;5053510;28;19908;-47
2022/10/08 06:27:14;;;;;;;;;;;;;;;;;;5041512;28;19998;-40
2022/10/08 06:29:40;;;;;;;;;;;;;;;;;;5052590;28;19931;-47
2022/10/08 06:32:06;;;;;;;;;;;;;;;;;;5050778;28;20011;-42
2022/10/08 06:34:32;;;;;;;;;;;;;;;;;;5043737;28;19913;-50
2022/10/08 06:36:58;;;;;;;;;;;;;;;;;;5051592;28;20353;-50
2022/10/08 06:39:24;;;;;;;;;;;;;;;;;;5053141;28;19905;-49
2022/10/08 06:41:50;;;;;;;;;;;;;;;;;;5050174;28;19916;-40
2022/10/08 06:44:17;;;;;;;;;;;;;;;;;;5040383;28;20349;-47
2022/10/08 06:46:44;;;;;;;;;;;;;;;;;;5050228;28;19909;-40
2022/10/08 06:49:10;;;;;;;;;;;;;;;;;;5049627;28;19919;-51
2022/10/08 06:51:36;;;;;;;;;;;;;;;;;;5051792;28;19916;-46
2022/10/08 06:54:01;;;;;;;;;;;;;;;;;;5051090;28;19923;-47
2022/10/08 06:56:28;;;;;;;;;;;;;;;;;;5051884;28;19909;-42
2022/10/08 06:58:53;;;;;;;;;;;;;;;;;;5043735;28;19989;-55
2022/10/08 07:01:19;;;;;;;;;;;;;;;;;;5048976;28;19971;-43
2022/10/08 07:03:45;;;;;;;;;;;;;;;;;;5052364;28;20429;-46
2022/10/08 07:06:11;;;;;;;;;;;;;;;;;;5051594;28;19916;-40
2022/10/08 07:08:37;;;;;;;;;;;;;;;;;;5051800;28;19908;-47
2022/10/08 07:11:03;;;;;;;;;;;;;;;;;;5050880;28;20013;-39
2022/10/08 07:13:29;;;;;;;;;;;;;;;;;;5046377;28;19909;-45
2022/10/08 07:15:55;;;;;;;;;;;;;;;;;;5050965;28;20408;-56
2022/10/08 07:18:21;;;;;;;;;;;;;;;;;;5046926;28;20358;-39
2022/10/08 07:20:47;;;;;;;;;;;;;;;;;;5051681;28;19954;-39
2022/10/08 07:23:12;;;;;;;;;;;;;;;;;;5050102;28;19915;-44
2022/10/08 07:25:38;;;;;;;;;;;;;;;;;;5050506;28;19908;-47
2022/10/08 07:28:04;;;;;;;;;;;;;;;;;;5049470;28;19974;-48
2022/10/08 07:30:31;;;;;;;;;;;;;;;;;;5051419;28;19999;-39
2022/10/08 07:32:59;;;;;;;;;;;;;;;;;;5050645;28;19948;-54
2022/10/08 07:35:25;;;;;;;;;;;;;;;;;;5047601;28;19923;-42
2022/10/08 07:37:50;;;;;;;;;;;;;;;;;;5050946;28;19999;-38
2022/10/08 07:40:16;;;;;;;;;;;;;;;;;;5048565;28;20121;-48
2022/10/08 07:42:42;;;;;;;;;;;;;;;;;;5048426;28;19916;-43
2022/10/08 07:45:08;;;;;;;;;;;;;;;;;;5049719;28;19924;-44
2022/10/08 07:47:34;;;;;;;;;;;;;;;;;;5050697;28;19909;-48
2022/10/08 07:50:00;;;;;;;;;;;;;;;;;;5048720;28;19913;-50
2022/10/08 07:52:26;;;;;;;;;;;;;;;;;;5050584;28;19935;-39
2022/10/08 07:54:52;;;;;;;;;;;;;;;;;;5049395;28;19997;-56
2022/10/08 07:57:17;;;;;;;;;;;;;;;;;;5044765;28;20346;-39
2022/10/08 07:59:43;;;;;;;;;;;;;;;;;;5051385;28;19916;-39
2022/10/08 08:02:09;;;;;;;;;;;;;;;;;;5043110;28;19909;-52
2022/10/08 08:04:35;;;;;;;;;;;;;;;;;;5048486;28;19909;-50
2022/10/08 08:07:01;;;;;;;;;;;;;;;;;;5043522;28;20437;-39
2022/10/08 08:09:28;;;;;;;;;;;;;;;;;;5051056;28;19916;-39
2022/10/08 08:11:54;;;;;;;;;;;;;;;;;;5043963;28;19917;-53
2022/10/08 08:14:20;;;;;;;;;;;;;;;;;;5048223;28;19966;-38
2022/10/08 08:16:46;;;;;;;;;;;;;;;;;;5046832;28;19913;-38
2022/10/08 08:19:12;;;;;;;;;;;;;;;;;;5046874;28;19909;-45
2022/10/08 08:21:38;;;;;;;;;;;;;;;;;;5047614;28;19927;-45
2022/10/08 08:24:04;;;;;;;;;;;;;;;;;;5049662;28;19974;-45
2022/10/08 08:26:31;;;;;;;;;;;;;;;;;;5048026;28;19931;-45
2022/10/08 08:28:58;;;;;;;;;;;;;;;;;;5046600;28;19964;-54
2022/10/08 08:31:24;;;;;;;;;;;;;;;;;;5048879;28;19956;-47
2022/10/08 08:33:50;;;;;;;;;;;;;;;;;;5048157;28;19975;-38
2022/10/08 08:36:16;;;;;;;;;;;;;;;;;;5049477;28;19905;-39
2022/10/08 08:38:42;;;;;;;;;;;;;;;;;;5045775;28;19908;-38
2022/10/08 08:41:08;;;;;;;;;;;;;;;;;;5047773;28;19916;-42
2022/10/08 08:43:34;;;;;;;;;;;;;;;;;;5048132;28;19923;-39
2022/10/08 08:45:59;;;;;;;;;;;;;;;;;;5048294;28;19913;-46
2022/10/08 08:48:25;;;;;;;;;;;;;;;;;;5049169;28;19908;-46
2022/10/08 08:50:51;;;;;;;;;;;;;;;;;;5046513;28;20007;-46
2022/10/08 08:53:17;;;;;;;;;;;;;;;;;;5046718;28;19914;-47
2022/10/08 08:55:44;;;;;;;;;;;;;;;;;;5048996;28;19940;-47
2022/10/08 08:58:09;;;;;;;;;;;;;;;;;;5042335;28;20285;-45
2022/10/08 09:00:35;;;;;;;;;;;;;;;;;;5051531;28;19909;-44
2022/10/08 09:03:01;;;;;;;;;;;;;;;;;;5050174;28;19908;-44
2022/10/08 09:05:27;;;;;;;;;;;;;;;;;;5051654;28;19917;-44
2022/10/08 09:07:53;;;;;;;;;;;;;;;;;;5050829;28;19915;-45
2022/10/08 09:10:19;;;;;;;;;;;;;;;;;;5050173;28;19916;-44
2022/10/08 09:12:45;;;;;;;;;;;;;;;;;;5050369;28;20007;-44
2022/10/08 09:15:10;;;;;;;;;;;;;;;;;;5046994;28;20286;-44
2022/10/08 09:17:37;;;;;;;;;;;;;;;;;;5050876;28;19915;-43
2022/10/08 09:20:03;;;;;;;;;;;;;;;;;;5050467;28;20340;-44
2022/10/08 09:22:29;;;;;;;;;;;;;;;;;;5053823;28;19913;-45
2022/10/08 09:24:55;;;;;;;;;;;;;;;;;;5054933;28;19927;-57
2022/10/08 09:27:21;;;;;;;;;;;;;;;;;;5052503;28;19947;-46
2022/10/08 09:29:47;;;;;;;;;;;;;;;;;;5055087;28;19955;-44
2022/10/08 09:32:13;;;;;;;;;;;;;;;;;;5054051;28;19909;-44
2022/10/08 09:34:39;;;;;;;;;;;;;;;;;;5055453;28;19975;-44
2022/10/08 09:37:05;;;;;;;;;;;;;;;;;;5054206;28;20007;-44
2022/10/08 09:39:31;;;;;;;;;;;;;;;;;;5055861;28;19912;-44
2022/10/08 09:41:57;;;;;;;;;;;;;;;;;;5054586;28;19909;-55
2022/10/08 09:44:22;;;;;;;;;;;;;;;;;;5053700;28;19917;-45
2022/10/08 09:46:48;;;;;;;;;;;;;;;;;;5053702;28;20393;-44
2022/10/08 09:49:14;;;;;;;;;;;;;;;;;;5050806;28;19913;-45
2022/10/08 09:51:40;;;;;;;;;;;;;;;;;;5050427;28;20400;-44
2022/10/08 09:54:06;;;;;;;;;;;;;;;;;;5053535;28;19920;-44
2022/10/08 09:56:32;;;;;;;;;;;;;;;;;;5053784;28;19928;-44
2022/10/08 09:58:58;;;;;;;;;;;;;;;;;;5051901;28;21323;-56
2022/10/08 10:01:24;;;;;;;;;;;;;;;;;;5052894;28;20059;-45
2022/10/08 10:03:50;;;;;;;;;;;;;;;;;;5054586;28;19920;-44
2022/10/08 10:06:16;;;;;;;;;;;;;;;;;;5053361;28;19904;-44
2022/10/08 10:08:47;;;;;;;;;;;;;;;;;;5053826;28;20351;-44
2022/10/08 10:11:13;;;;;;;;;;;;;;;;;;5046689;28;19913;-44
2022/10/08 10:13:39;;;;;;;;;;;;;;;;;;5054444;28;20019;-44
2022/10/08 10:16:05;;;;;;;;;;;;;;;;;;5053175;28;19955;-44
2022/10/08 10:18:31;;;;;;;;;;;;;;;;;;5052216;28;20403;-44
2022/10/08 10:20:58;;;;;;;;;;;;;;;;;;5053276;28;19963;-56
2022/10/08 10:23:24;;;;;;;;;;;;;;;;;;5050713;28;20015;-44
2022/10/08 10:25:50;;;;;;;;;;;;;;;;;;5051651;28;19912;-43
2022/10/08 10:28:16;;;;;;;;;;;;;;;;;;5053183;28;19908;-44
2022/10/08 10:30:42;;;;;;;;;;;;;;;;;;5051465;28;19909;-44
2022/10/08 10:33:07;;;;;;;;;;;;;;;;;;5052846;28;19913;-45
2022/10/08 10:35:33;;;;;;;;;;;;;;;;;;5052728;28;19940;-43
2022/10/08 10:37:59;;;;;;;;;;;;;;;;;;5053547;28;19913;-49
2022/10/08 10:40:25;;;;;;;;;;;;;;;;;;5053588;28;19954;-44
2022/10/08 10:42:51;;;;;;;;;;;;;;;;;;5054238;28;19928;-44
2022/10/08 10:45:17;;;;;;;;;;;;;;;;;;5052539;28;19912;-44
2022/10/08 10:47:43;;;;;;;;;;;;;;;;;;5053757;28;19913;-44
2022/10/08 10:50:09;;;;;;;;;;;;;;;;;;5051472;28;19917;-46
2022/10/08 10:52:34;;;;;;;;;;;;;;;;;;5054185;28;19935;-44
2022/10/08 10:55:00;;;;;;;;;;;;;;;;;;5052821;28;19955;-53
2022/10/08 10:57:26;;;;;;;;;;;;;;;;;;5053924;28;20428;-52
2022/10/08 10:59:52;;;;;;;;;;;;;;;;;;5052185;28;19916;-44
2022/10/08 11:02:18;;;;;;;;;;;;;;;;;;5052408;28;20438;-48
2022/10/08 11:04:44;;;;;;;;;;;;;;;;;;5053407;28;20011;-45
2022/10/08 11:07:10;;;;;;;;;;;;;;;;;;5051389;28;19909;-45
2022/10/08 11:09:36;;;;;;;;;;;;;;;;;;5047875;28;20436;-46
2022/10/08 11:12:01;;;;;;;;;;;;;;;;;;5052360;28;19923;-45
2022/10/08 11:14:27;;;;;;;;;;;;;;;;;;5053517;28;19909;-44
2022/10/08 11:16:53;;;;;;;;;;;;;;;;;;5053308;28;20350;-44
2022/10/08 11:19:19;;;;;;;;;;;;;;;;;;5052710;28;19923;-45
2022/10/08 11:21:45;;;;;;;;;;;;;;;;;;5052245;28;19909;-44
2022/10/08 11:24:11;;;;;;;;;;;;;;;;;;5052127;28;20239;-45
2022/10/08 11:26:37;;;;;;;;;;;;;;;;;;5052759;28;19912;-44
2022/10/08 11:29:05;;;;;;;;;;;;;;;;;;5051783;28;20369;-44
2022/10/08 11:31:31;;;;;;;;;;;;;;;;;;5052763;28;19916;-44
2022/10/08 11:33:57;;;;;;;;;;;;;;;;;;5052876;28;19919;-55
2022/10/08 11:36:23;;;;;;;;;;;;;;;;;;5052680;28;19905;-44
2022/10/08 11:38:49;;;;;;;;;;;;;;;;;;5052912;28;19916;-44
2022/10/08 11:41:15;;;;;;;;;;;;;;;;;;5050541;28;19935;-44
2022/10/08 11:43:40;;;;;;;;;;;;;;;;;;5053069;28;19923;-44
2022/10/08 11:46:06;;;;;;;;;;;;;;;;;;5050505;28;19914;-44
2022/10/08 11:48:32;;;;;;;;;;;;;;;;;;5053268;28;19950;-45
2022/10/08 11:50:58;;;;;;;;;;;;;;;;;;5046656;28;19920;-55
2022/10/08 11:53:25;;;;;;;;;;;;;;;;;;5050426;28;19909;-44
2022/10/08 11:55:52;;;;;;;;;;;;;;;;;;5051042;28;20007;-45
2022/10/08 11:58:20;;;;;;;;;;;;;;;;;;5051309;28;20000;-44
2022/10/08 12:00:46;;;;;;;;;;;;;;;;;;5052570;28;19979;-44
2022/10/08 12:03:11;;;;;;;;;;;;;;;;;;5051903;28;19905;-44
2022/10/08 12:05:44;;;;;;;;;;;;;;;;;;5094552;27;1915287;-37
2022/10/08 12:08:10;;;;;;;;;;;;;;;;;;5139275;27;19919;-37
2022/10/08 12:10:35;;;;;;;;;;;;;;;;;;5151973;27;20409;-38
2022/10/08 12:13:01;;;;;;;;;;;;;;;;;;5143915;27;19958;-37
2022/10/08 12:15:29;;;;;;;;;;;;;;;;;;5151107;27;19942;-37
2022/10/08 12:17:55;;;;;;;;;;;;;;;;;;5152118;27;19911;-53
2022/10/08 12:20:20;;;;;;;;;;;;;;;;;;5150450;27;19922;-37
2022/10/08 12:22:46;;;;;;;;;;;;;;;;;;5150885;27;19998;-37
2022/10/08 12:25:12;;;;;;;;;;;;;;;;;;5154188;27;20009;-47
2022/10/08 12:27:40;;;;;;;;;;;;;;;;;;5120451;27;19919;-42
2022/10/08 12:30:06;;;;;;;;;;;;;;;;;;5147605;27;19959;-37
2022/10/08 12:32:32;;;;;;;;;;;;;;;;;;5142085;27;20273;-37
2022/10/08 12:34:57;;;;;;;;;;;;;;;;;;5142936;27;19915;-54
2022/10/08 12:37:23;;;;;;;;;;;;;;;;;;5150834;27;19911;-37
2022/10/08 12:39:49;;;;;;;;;;;;;;;;;;5134897;27;20284;-37
2022/10/08 12:42:15;;;;;;;;;;;;;;;;;;5128477;27;19968;-37
2022/10/08 12:44:41;;;;;;;;;;;;;;;;;;5134719;27;19918;-37
2022/10/08 12:47:07;;;;;;;;;;;;;;;;;;5135861;27;19998;-38
2022/10/08 12:49:33;;;;;;;;;;;;;;;;;;5149009;27;19951;-38
2022/10/08 12:51:59;;;;;;;;;;;;;;;;;;5145695;27;19918;-51
2022/10/08 12:54:25;;;;;;;;;;;;;;;;;;5132750;27;19911;-38
2022/10/08 12:56:51;;;;;;;;;;;;;;;;;;5148081;27;19918;-37
2022/10/08 12:59:17;;;;;;;;;;;;;;;;;;5151277;27;19912;-38
2022/10/08 13:01:43;;;;;;;;;;;;;;;;;;5152554;27;19914;-37
2022/10/08 13:04:09;;;;;;;;;;;;;;;;;;5152738;27;19979;-38
2022/10/08 13:06:35;;;;;;;;;;;;;;;;;;5152040;27;20338;-38
2022/10/08 13:09:01;;;;;;;;;;;;;;;;;;5146060;27;20006;-37
2022/10/08 13:11:27;;;;;;;;;;;;;;;;;;5129029;27;19912;-38
2022/10/08 13:13:53;;;;;;;;;;;;;;;;;;5129574;27;20413;-37
2022/10/08 13:16:19;;;;;;;;;;;;;;;;;;5119013;27;19908;-39
2022/10/08 13:18:44;;;;;;;;;;;;;;;;;;5116601;27;19920;-42
2022/10/08 13:21:10;;;;;;;;;;;;;;;;;;5123079;27;19908;-38
2022/10/08 13:23:36;;;;;;;;;;;;;;;;;;5132097;27;19922;-37
2022/10/08 13:26:02;;;;;;;;;;;;;;;;;;5134819;27;20272;-38
2022/10/08 13:28:28;;;;;;;;;;;;;;;;;;5134537;27;19908;-37
2022/10/08 13:30:54;;;;;;;;;;;;;;;;;;5119863;27;19994;-37
2022/10/08 13:33:20;;;;;;;;;;;;;;;;;;5131998;27;19915;-44
2022/10/08 13:35:46;;;;;;;;;;;;;;;;;;5135277;27;19907;-37
2022/10/08 13:38:11;;;;;;;;;;;;;;;;;;5134577;27;20395;-41
2022/10/08 13:40:37;;;;;;;;;;;;;;;;;;5135598;27;19953;-41
2022/10/08 13:43:03;;;;;;;;;;;;;;;;;;5146837;27;19964;-38
2022/10/08 13:45:29;;;;;;;;;;;;;;;;;;5135199;27;19916;-38
2022/10/08 13:47:55;;;;;;;;;;;;;;;;;;5130667;27;19919;-55
2022/10/08 13:50:21;;;;;;;;;;;;;;;;;;5134442;27;19918;-38
2022/10/08 13:52:50;;;;;;;;;;;;;;;;;;5121118;27;19964;-47
2022/10/08 13:55:15;;;;;;;;;;;;;;;;;;5118155;27;19915;-38
2022/10/08 13:57:41;;;;;;;;;;;;;;;;;;5119869;27;19979;-38
2022/10/08 14:00:07;;;;;;;;;;;;;;;;;;5134101;27;20371;-38
2022/10/08 14:02:33;;;;;;;;;;;;;;;;;;5135530;27;19911;-37
2022/10/08 14:04:59;;;;;;;;;;;;;;;;;;5133911;27;19926;-55
2022/10/08 14:07:25;;;;;;;;;;;;;;;;;;5140933;27;20344;-37
2022/10/08 14:09:51;;;;;;;;;;;;;;;;;;5129258;27;19908;-38
2022/10/08 14:12:17;;;;;;;;;;;;;;;;;;5131806;27;20010;-44
2022/10/08 14:14:42;;;;;;;;;;;;;;;;;;5120498;27;20241;-43
2022/10/08 14:17:08;;;;;;;;;;;;;;;;;;5133262;27;19915;-44
2022/10/08 14:19:34;;;;;;;;;;;;;;;;;;5129703;27;19951;-43
2022/10/08 14:22:00;;;;;;;;;;;;;;;;;;5122735;27;20314;-41
2022/10/08 14:24:26;;;;;;;;;;;;;;;;;;5132826;27;19916;-41
2022/10/08 14:26:52;;;;;;;;;;;;;;;;;;5132560;27;20411;-40
2022/10/08 14:29:18;;;;;;;;;;;;;;;;;;5130741;27;19904;-40
2022/10/08 14:31:44;;;;;;;;;;;;;;;;;;5133162;27;19915;-40
2022/10/08 14:34:10;;;;;;;;;;;;;;;;;;5141681;27;19915;-40
2022/10/08 14:36:35;;;;;;;;;;;;;;;;;;5137643;27;20280;-41
2022/10/08 14:39:03;;;;;;;;;;;;;;;;;;5132645;27;20017;-40
2022/10/08 14:41:29;;;;;;;;;;;;;;;;;;5132218;27;19912;-42
2022/10/08 14:43:55;;;;;;;;;;;;;;;;;;5133471;27;19956;-43
2022/10/08 14:46:21;;;;;;;;;;;;;;;;;;5133912;27;19911;-40
2022/10/08 14:48:47;;;;;;;;;;;;;;;;;;5130846;27;19918;-41
2022/10/08 14:51:13;;;;;;;;;;;;;;;;;;5130521;27;19914;-40
2022/10/08 14:53:39;;;;;;;;;;;;;;;;;;5126216;27;19915;-40
2022/10/08 14:56:05;;;;;;;;;;;;;;;;;;5115469;27;20357;-41
2022/10/08 14:58:31;;;;;;;;;;;;;;;;;;5121945;27;19959;-41
2022/10/08 15:00:57;;;;;;;;;;;;;;;;;;5144285;27;19911;-44
2022/10/08 15:03:23;;;;;;;;;;;;;;;;;;5127278;27;19912;-41
2022/10/08 15:05:49;;;;;;;;;;;;;;;;;;5139562;27;20375;-41
2022/10/08 15:08:15;;;;;;;;;;;;;;;;;;5138629;27;20043;-42
2022/10/08 15:10:41;;;;;;;;;;;;;;;;;;5126042;27;19911;-42
2022/10/08 15:13:07;;;;;;;;;;;;;;;;;;5126253;27;19916;-41
2022/10/08 15:15:32;;;;;;;;;;;;;;;;;;5131330;27;20006;-41
2022/10/08 15:17:58;;;;;;;;;;;;;;;;;;5121188;27;19937;-45
2022/10/08 15:20:24;;;;;;;;;;;;;;;;;;5139107;27;19911;-41
2022/10/08 15:22:50;;;;;;;;;;;;;;;;;;5130462;27;19947;-40
2022/10/08 15:25:16;;;;;;;;;;;;;;;;;;5133328;27;20593;-44
2022/10/08 15:27:42;;;;;;;;;;;;;;;;;;5130325;27;19952;-41
2022/10/08 15:30:08;;;;;;;;;;;;;;;;;;5130869;27;20379;-42
2022/10/08 15:32:36;;;;;;;;;;;;;;;;;;5129044;27;19965;-40
2022/10/08 15:35:01;;;;;;;;;;;;;;;;;;5125141;27;19911;-41
2022/10/08 15:37:27;;;;;;;;;;;;;;;;;;5131593;27;19923;-43
2022/10/08 15:39:53;;;;;;;;;;;;;;;;;;5128185;27;19911;-41
2022/10/08 15:42:19;;;;;;;;;;;;;;;;;;5128153;27;19915;-43
2022/10/08 15:44:45;;;;;;;;;;;;;;;;;;5126675;27;19938;-42
2022/10/08 15:47:13;;;;;;;;;;;;;;;;;;5127023;27;19911;-41
2022/10/08 15:49:39;;;;;;;;;;;;;;;;;;5127904;27;20263;-42
2022/10/08 15:52:05;;;;;;;;;;;;;;;;;;5128145;27;19911;-41
2022/10/08 15:54:31;;;;;;;;;;;;;;;;;;5124211;27;19919;-42
2022/10/08 15:56:56;;;;;;;;;;;;;;;;;;5130482;27;20264;-45
2022/10/08 15:59:22;;;;;;;;;;;;;;;;;;5131679;27;19914;-43
2022/10/08 16:01:48;;;;;;;;;;;;;;;;;;5132240;27;20465;-44
2022/10/08 16:04:14;;;;;;;;;;;;;;;;;;5131219;27;19927;-46
2022/10/08 16:06:46;;;;;;;;;;;;;;;;;;5127963;27;20280;-44
2022/10/08 16:09:12;;;;;;;;;;;;;;;;;;5120180;28;20375;-44
2022/10/08 16:11:38;;;;;;;;;;;;;;;;;;5129479;27;20042;-41
2022/10/08 16:14:05;;;;;;;;;;;;;;;;;;5126049;27;19911;-40
2022/10/08 16:16:30;;;;;;;;;;;;;;;;;;5128577;27;20261;-44
2022/10/08 16:18:56;;;;;;;;;;;;;;;;;;5131589;27;19987;-42
2022/10/08 16:21:22;;;;;;;;;;;;;;;;;;5127158;27;19914;-40
2022/10/08 16:23:48;;;;;;;;;;;;;;;;;;5127774;27;20326;-40
2022/10/08 16:26:19;;;;;;;;;;;;;;;;;;5134226;27;20779;-41
2022/10/08 16:28:45;;;;;;;;;;;;;;;;;;5120091;28;19911;-40
2022/10/08 16:31:10;;;;;;;;;;;;;;;;;;5126711;27;20391;-40
2022/10/08 16:33:36;;;;;;;;;;;;;;;;;;5131430;27;19958;-40
2022/10/08 16:36:02;;;;;;;;;;;;;;;;;;5130055;27;20264;-41